sensor_id;sensor_type;location;lat;lon;timestamp;P1;durP1;ratioP1;P2;durP2;ratioP2
11431;SDS011;5772;50.940;6.782;2023-07-31T00:00:57;24.60;;;23.17;;
11431;SDS011;5772;50.940;6.782;2023-07-31T00:03:24;25.60;;;24.43;;
11431;SDS011;5772;50.940;6.782;2023-07-31T00:05:49;24.47;;;23.27;;
11431;SDS011;5772;50.940;6.782;2023-07-31T00:08:15;25.37;;;24.07;;
11431;SDS011;5772;50.940;6.782;2023-07-31T00:10:41;26.13;;;24.53;;
11431;SDS011;5772;50.940;6.782;2023-07-31T00:13:06;26.73;;;25.20;;
11431;SDS011;5772;50.940;6.782;2023-07-31T00:15:32;24.67;;;23.47;;
11431;SDS011;5772;50.940;6.782;2023-07-31T00:17:57;25.50;;;24.27;;
11431;SDS011;5772;50.940;6.782;2023-07-31T00:20:24;24.77;;;23.33;;
11431;SDS011;5772;50.940;6.782;2023-07-31T00:22:49;25.90;;;24.70;;
11431;SDS011;5772;50.940;6.782;2023-07-31T00:25:15;25.70;;;24.50;;
11431;SDS011;5772;50.940;6.782;2023-07-31T00:27:40;24.83;;;23.73;;
11431;SDS011;5772;50.940;6.782;2023-07-31T00:30:06;24.23;;;23.03;;
11431;SDS011;5772;50.940;6.782;2023-07-31T00:32:32;25.17;;;24.07;;
11431;SDS011;5772;50.940;6.782;2023-07-31T00:34:57;25.27;;;23.67;;
11431;SDS011;5772;50.940;6.782;2023-07-31T00:37:24;25.33;;;24.23;;
11431;SDS011;5772;50.940;6.782;2023-07-31T00:39:49;25.33;;;23.87;;
11431;SDS011;5772;50.940;6.782;2023-07-31T00:42:14;26.23;;;24.80;;
11431;SDS011;5772;50.940;6.782;2023-07-31T00:44:40;25.13;;;24.03;;
11431;SDS011;5772;50.940;6.782;2023-07-31T00:47:05;24.07;;;22.77;;
11431;SDS011;5772;50.940;6.782;2023-07-31T00:49:30;27.93;;;26.43;;
11431;SDS011;5772;50.940;6.782;2023-07-31T00:51:56;25.67;;;24.20;;
11431;SDS011;5772;50.940;6.782;2023-07-31T00:54:23;24.63;;;23.50;;
11431;SDS011;5772;50.940;6.782;2023-07-31T00:56:48;26.23;;;24.93;;
11431;SDS011;5772;50.940;6.782;2023-07-31T00:59:15;24.70;;;23.57;;
11431;SDS011;5772;50.940;6.782;2023-07-31T01:01:41;26.60;;;25.23;;
11431;SDS011;5772;50.940;6.782;2023-07-31T01:04:06;25.13;;;24.03;;
11431;SDS011;5772;50.940;6.782;2023-07-31T01:06:33;28.73;;;27.17;;
11431;SDS011;5772;50.940;6.782;2023-07-31T01:09:03;24.33;;;23.07;;
11431;SDS011;5772;50.940;6.782;2023-07-31T01:11:31;25.03;;;23.70;;
11431;SDS011;5772;50.940;6.782;2023-07-31T01:13:58;25.17;;;23.87;;
11431;SDS011;5772;50.940;6.782;2023-07-31T01:16:24;25.77;;;24.57;;
11431;SDS011;5772;50.940;6.782;2023-07-31T01:18:50;26.90;;;25.50;;
11431;SDS011;5772;50.940;6.782;2023-07-31T01:21:21;27.00;;;25.57;;
11431;SDS011;5772;50.940;6.782;2023-07-31T01:24:00;27.10;;;25.60;;
11431;SDS011;5772;50.940;6.782;2023-07-31T01:26:36;26.67;;;25.43;;
11431;SDS011;5772;50.940;6.782;2023-07-31T01:29:03;28.03;;;26.30;;
11431;SDS011;5772;50.940;6.782;2023-07-31T01:31:32;25.00;;;23.80;;
11431;SDS011;5772;50.940;6.782;2023-07-31T01:33:58;28.07;;;26.87;;
11431;SDS011;5772;50.940;6.782;2023-07-31T01:36:25;26.80;;;24.60;;
11431;SDS011;5772;50.940;6.782;2023-07-31T01:38:51;27.60;;;26.07;;
11431;SDS011;5772;50.940;6.782;2023-07-31T01:41:16;25.17;;;24.07;;
11431;SDS011;5772;50.940;6.782;2023-07-31T01:43:43;25.47;;;24.37;;
11431;SDS011;5772;50.940;6.782;2023-07-31T01:46:09;25.30;;;23.90;;
11431;SDS011;5772;50.940;6.782;2023-07-31T01:48:34;26.43;;;25.33;;
11431;SDS011;5772;50.940;6.782;2023-07-31T01:51:00;24.50;;;23.40;;
11431;SDS011;5772;50.940;6.782;2023-07-31T01:53:25;25.80;;;24.67;;
11431;SDS011;5772;50.940;6.782;2023-07-31T01:55:50;25.27;;;24.10;;
11431;SDS011;5772;50.940;6.782;2023-07-31T01:58:16;25.27;;;24.07;;
11431;SDS011;5772;50.940;6.782;2023-07-31T02:00:42;24.97;;;23.77;;
11431;SDS011;5772;50.940;6.782;2023-07-31T02:03:08;26.77;;;25.47;;
11431;SDS011;5772;50.940;6.782;2023-07-31T02:05:33;26.40;;;25.20;;
11431;SDS011;5772;50.940;6.782;2023-07-31T02:07:58;23.90;;;22.70;;
11431;SDS011;5772;50.940;6.782;2023-07-31T02:10:24;26.37;;;25.13;;
11431;SDS011;5772;50.940;6.782;2023-07-31T02:12:49;27.60;;;26.30;;
11431;SDS011;5772;50.940;6.782;2023-07-31T02:15:14;24.00;;;22.90;;
11431;SDS011;5772;50.940;6.782;2023-07-31T02:17:41;25.83;;;24.53;;
11431;SDS011;5772;50.940;6.782;2023-07-31T02:20:07;26.97;;;25.23;;
11431;SDS011;5772;50.940;6.782;2023-07-31T02:22:33;25.07;;;23.77;;
11431;SDS011;5772;50.940;6.782;2023-07-31T02:24:58;26.83;;;25.37;;
11431;SDS011;5772;50.940;6.782;2023-07-31T02:27:23;25.67;;;24.47;;
11431;SDS011;5772;50.940;6.782;2023-07-31T02:29:49;29.37;;;27.93;;
11431;SDS011;5772;50.940;6.782;2023-07-31T02:32:14;26.73;;;25.53;;
11431;SDS011;5772;50.940;6.782;2023-07-31T02:34:41;28.07;;;26.77;;
11431;SDS011;5772;50.940;6.782;2023-07-31T02:37:06;25.53;;;24.13;;
11431;SDS011;5772;50.940;6.782;2023-07-31T02:39:31;27.17;;;25.40;;
11431;SDS011;5772;50.940;6.782;2023-07-31T02:41:57;27.03;;;25.83;;
11431;SDS011;5772;50.940;6.782;2023-07-31T02:44:22;25.17;;;23.83;;
11431;SDS011;5772;50.940;6.782;2023-07-31T02:46:47;28.13;;;26.83;;
11431;SDS011;5772;50.940;6.782;2023-07-31T02:49:13;26.70;;;25.30;;
11431;SDS011;5772;50.940;6.782;2023-07-31T02:51:39;26.03;;;24.83;;
11431;SDS011;5772;50.940;6.782;2023-07-31T02:54:05;26.23;;;24.50;;
11431;SDS011;5772;50.940;6.782;2023-07-31T02:56:30;26.60;;;25.23;;
11431;SDS011;5772;50.940;6.782;2023-07-31T02:58:55;27.47;;;26.00;;
11431;SDS011;5772;50.940;6.782;2023-07-31T03:01:21;24.80;;;23.47;;
11431;SDS011;5772;50.940;6.782;2023-07-31T03:03:46;27.07;;;25.67;;
11431;SDS011;5772;50.940;6.782;2023-07-31T03:06:11;25.17;;;24.07;;
11431;SDS011;5772;50.940;6.782;2023-07-31T03:08:38;25.43;;;24.23;;
11431;SDS011;5772;50.940;6.782;2023-07-31T03:11:03;24.23;;;22.93;;
11431;SDS011;5772;50.940;6.782;2023-07-31T03:13:29;25.60;;;24.23;;
11431;SDS011;5772;50.940;6.782;2023-07-31T03:15:54;24.47;;;23.33;;
11431;SDS011;5772;50.940;6.782;2023-07-31T03:18:20;25.93;;;24.83;;
11431;SDS011;5772;50.940;6.782;2023-07-31T03:20:45;25.23;;;23.90;;
11431;SDS011;5772;50.940;6.782;2023-07-31T03:23:10;26.90;;;25.60;;
11431;SDS011;5772;50.940;6.782;2023-07-31T03:25:37;25.57;;;24.07;;
11431;SDS011;5772;50.940;6.782;2023-07-31T03:28:02;26.43;;;24.97;;
11431;SDS011;5772;50.940;6.782;2023-07-31T03:30:28;24.17;;;22.87;;
11431;SDS011;5772;50.940;6.782;2023-07-31T03:32:53;25.70;;;24.40;;
11431;SDS011;5772;50.940;6.782;2023-07-31T03:35:19;25.67;;;24.20;;
11431;SDS011;5772;50.940;6.782;2023-07-31T03:37:44;23.77;;;22.37;;
11431;SDS011;5772;50.940;6.782;2023-07-31T03:40:10;21.27;;;20.27;;
11431;SDS011;5772;50.940;6.782;2023-07-31T03:42:37;22.00;;;20.90;;
11431;SDS011;5772;50.940;6.782;2023-07-31T03:45:03;21.63;;;20.63;;
11431;SDS011;5772;50.940;6.782;2023-07-31T03:47:29;25.57;;;23.90;;
11431;SDS011;5772;50.940;6.782;2023-07-31T03:49:54;21.93;;;20.83;;
11431;SDS011;5772;50.940;6.782;2023-07-31T03:52:19;23.93;;;22.63;;
11431;SDS011;5772;50.940;6.782;2023-07-31T03:54:45;22.10;;;21.10;;
11431;SDS011;5772;50.940;6.782;2023-07-31T03:57:10;24.67;;;23.47;;
11431;SDS011;5772;50.940;6.782;2023-07-31T03:59:37;21.63;;;20.73;;
11431;SDS011;5772;50.940;6.782;2023-07-31T04:02:02;22.77;;;21.23;;
11431;SDS011;5772;50.940;6.782;2023-07-31T04:04:28;23.50;;;22.03;;
11431;SDS011;5772;50.940;6.782;2023-07-31T04:06:53;21.97;;;20.77;;
11431;SDS011;5772;50.940;6.782;2023-07-31T04:09:19;21.70;;;20.33;;
11431;SDS011;5772;50.940;6.782;2023-07-31T04:11:44;21.20;;;20.13;;
11431;SDS011;5772;50.940;6.782;2023-07-31T04:14:09;20.47;;;19.57;;
11431;SDS011;5772;50.940;6.782;2023-07-31T04:16:36;23.80;;;22.37;;
11431;SDS011;5772;50.940;6.782;2023-07-31T04:19:01;25.03;;;23.93;;
11431;SDS011;5772;50.940;6.782;2023-07-31T04:21:28;23.83;;;22.00;;
11431;SDS011;5772;50.940;6.782;2023-07-31T04:23:53;24.57;;;23.37;;
11431;SDS011;5772;50.940;6.782;2023-07-31T04:26:19;22.87;;;21.47;;
11431;SDS011;5772;50.940;6.782;2023-07-31T04:28:44;25.10;;;23.70;;
11431;SDS011;5772;50.940;6.782;2023-07-31T04:31:09;25.83;;;24.60;;
11431;SDS011;5772;50.940;6.782;2023-07-31T04:33:36;23.57;;;22.30;;
11431;SDS011;5772;50.940;6.782;2023-07-31T04:36:01;24.73;;;23.30;;
11431;SDS011;5772;50.940;6.782;2023-07-31T04:38:27;24.43;;;23.13;;
11431;SDS011;5772;50.940;6.782;2023-07-31T04:40:52;24.73;;;23.53;;
11431;SDS011;5772;50.940;6.782;2023-07-31T04:43:18;26.13;;;24.30;;
11431;SDS011;5772;50.940;6.782;2023-07-31T04:45:45;27.53;;;26.13;;
11431;SDS011;5772;50.940;6.782;2023-07-31T04:48:10;24.57;;;23.43;;
11431;SDS011;5772;50.940;6.782;2023-07-31T04:50:37;27.43;;;26.07;;
11431;SDS011;5772;50.940;6.782;2023-07-31T04:53:02;24.30;;;22.80;;
11431;SDS011;5772;50.940;6.782;2023-07-31T04:55:28;24.83;;;23.63;;
11431;SDS011;5772;50.940;6.782;2023-07-31T04:57:53;26.67;;;25.50;;
11431;SDS011;5772;50.940;6.782;2023-07-31T05:00:18;24.47;;;23.37;;
11431;SDS011;5772;50.940;6.782;2023-07-31T05:02:44;27.73;;;26.20;;
11431;SDS011;5772;50.940;6.782;2023-07-31T05:05:09;21.43;;;20.43;;
11431;SDS011;5772;50.940;6.782;2023-07-31T05:07:36;23.83;;;22.53;;
11431;SDS011;5772;50.940;6.782;2023-07-31T05:10:01;23.80;;;22.60;;
11431;SDS011;5772;50.940;6.782;2023-07-31T05:12:27;24.37;;;23.27;;
11431;SDS011;5772;50.940;6.782;2023-07-31T05:14:52;22.80;;;21.60;;
11431;SDS011;5772;50.940;6.782;2023-07-31T05:17:18;21.33;;;20.30;;
11431;SDS011;5772;50.940;6.782;2023-07-31T05:19:43;19.93;;;18.93;;
11431;SDS011;5772;50.940;6.782;2023-07-31T05:22:08;20.13;;;19.23;;
11431;SDS011;5772;50.940;6.782;2023-07-31T05:24:35;20.00;;;19.00;;
11431;SDS011;5772;50.940;6.782;2023-07-31T05:27:01;21.57;;;20.57;;
11431;SDS011;5772;50.940;6.782;2023-07-31T05:29:26;20.17;;;19.30;;
11431;SDS011;5772;50.940;6.782;2023-07-31T05:31:51;20.37;;;19.23;;
11431;SDS011;5772;50.940;6.782;2023-07-31T05:34:17;21.00;;;20.03;;
11431;SDS011;5772;50.940;6.782;2023-07-31T05:36:42;19.87;;;18.87;;
11431;SDS011;5772;50.940;6.782;2023-07-31T05:39:07;19.73;;;18.63;;
11431;SDS011;5772;50.940;6.782;2023-07-31T05:41:35;19.50;;;18.53;;
11431;SDS011;5772;50.940;6.782;2023-07-31T05:44:00;18.20;;;17.30;;
11431;SDS011;5772;50.940;6.782;2023-07-31T05:46:25;21.73;;;20.63;;
11431;SDS011;5772;50.940;6.782;2023-07-31T05:48:51;21.97;;;20.87;;
11431;SDS011;5772;50.940;6.782;2023-07-31T05:51:16;21.30;;;20.13;;
11431;SDS011;5772;50.940;6.782;2023-07-31T05:53:42;19.83;;;18.77;;
11431;SDS011;5772;50.940;6.782;2023-07-31T05:56:07;20.40;;;19.40;;
11431;SDS011;5772;50.940;6.782;2023-07-31T05:58:34;21.80;;;20.80;;
11431;SDS011;5772;50.940;6.782;2023-07-31T06:00:59;22.80;;;21.80;;
11431;SDS011;5772;50.940;6.782;2023-07-31T06:03:25;21.70;;;20.70;;
11431;SDS011;5772;50.940;6.782;2023-07-31T06:05:50;22.17;;;21.07;;
11431;SDS011;5772;50.940;6.782;2023-07-31T06:08:15;23.47;;;22.30;;
11431;SDS011;5772;50.940;6.782;2023-07-31T06:10:41;23.33;;;22.23;;
11431;SDS011;5772;50.940;6.782;2023-07-31T06:13:08;25.10;;;23.90;;
11431;SDS011;5772;50.940;6.782;2023-07-31T06:15:35;25.67;;;24.20;;
11431;SDS011;5772;50.940;6.782;2023-07-31T06:18:01;23.80;;;22.73;;
11431;SDS011;5772;50.940;6.782;2023-07-31T06:20:26;23.83;;;22.73;;
11431;SDS011;5772;50.940;6.782;2023-07-31T06:22:51;24.17;;;23.03;;
11431;SDS011;5772;50.940;6.782;2023-07-31T06:25:17;21.83;;;20.80;;
11431;SDS011;5772;50.940;6.782;2023-07-31T06:27:42;24.17;;;22.73;;
11431;SDS011;5772;50.940;6.782;2023-07-31T06:30:08;23.37;;;22.07;;
11431;SDS011;5772;50.940;6.782;2023-07-31T06:32:35;23.73;;;22.27;;
11431;SDS011;5772;50.940;6.782;2023-07-31T06:35:00;24.80;;;23.50;;
11431;SDS011;5772;50.940;6.782;2023-07-31T06:37:25;23.97;;;22.77;;
11431;SDS011;5772;50.940;6.782;2023-07-31T06:39:51;22.83;;;21.63;;
11431;SDS011;5772;50.940;6.782;2023-07-31T06:42:16;24.97;;;23.63;;
11431;SDS011;5772;50.940;6.782;2023-07-31T06:44:41;24.60;;;23.33;;
11431;SDS011;5772;50.940;6.782;2023-07-31T06:47:07;22.00;;;20.97;;
11431;SDS011;5772;50.940;6.782;2023-07-31T06:49:34;22.20;;;21.00;;
11431;SDS011;5772;50.940;6.782;2023-07-31T06:51:59;22.03;;;20.67;;
11431;SDS011;5772;50.940;6.782;2023-07-31T06:54:24;22.13;;;20.67;;
11431;SDS011;5772;50.940;6.782;2023-07-31T06:56:50;23.23;;;22.07;;
11431;SDS011;5772;50.940;6.782;2023-07-31T06:59:15;22.53;;;21.53;;
11431;SDS011;5772;50.940;6.782;2023-07-31T07:01:40;21.20;;;19.87;;
11431;SDS011;5772;50.940;6.782;2023-07-31T07:04:06;22.07;;;21.00;;
11431;SDS011;5772;50.940;6.782;2023-07-31T07:06:32;24.40;;;23.27;;
11431;SDS011;5772;50.940;6.782;2023-07-31T07:08:58;23.80;;;22.57;;
11431;SDS011;5772;50.940;6.782;2023-07-31T07:11:23;28.03;;;26.60;;
11431;SDS011;5772;50.940;6.782;2023-07-31T07:13:48;29.13;;;27.83;;
11431;SDS011;5772;50.940;6.782;2023-07-31T07:16:14;25.57;;;24.47;;
11431;SDS011;5772;50.940;6.782;2023-07-31T07:18:39;30.70;;;29.00;;
11431;SDS011;5772;50.940;6.782;2023-07-31T07:21:05;30.77;;;29.33;;
11431;SDS011;5772;50.940;6.782;2023-07-31T07:23:31;28.60;;;27.10;;
11431;SDS011;5772;50.940;6.782;2023-07-31T07:25:57;28.13;;;26.63;;
11431;SDS011;5772;50.940;6.782;2023-07-31T07:28:22;27.77;;;26.57;;
11431;SDS011;5772;50.940;6.782;2023-07-31T07:30:50;27.53;;;26.23;;
11431;SDS011;5772;50.940;6.782;2023-07-31T07:33:16;23.80;;;22.73;;
11431;SDS011;5772;50.940;6.782;2023-07-31T07:35:41;25.50;;;24.37;;
11431;SDS011;5772;50.940;6.782;2023-07-31T07:38:07;25.57;;;24.37;;
11431;SDS011;5772;50.940;6.782;2023-07-31T07:40:33;24.23;;;22.93;;
11431;SDS011;5772;50.940;6.782;2023-07-31T07:43:03;22.40;;;21.43;;
11431;SDS011;5772;50.940;6.782;2023-07-31T07:45:29;22.13;;;21.13;;
11431;SDS011;5772;50.940;6.782;2023-07-31T07:47:54;23.87;;;22.83;;
11431;SDS011;5772;50.940;6.782;2023-07-31T07:50:19;21.70;;;20.60;;
11431;SDS011;5772;50.940;6.782;2023-07-31T07:52:45;23.40;;;22.40;;
11431;SDS011;5772;50.940;6.782;2023-07-31T07:55:10;21.17;;;20.23;;
11431;SDS011;5772;50.940;6.782;2023-07-31T07:57:37;23.03;;;21.63;;
11431;SDS011;5772;50.940;6.782;2023-07-31T08:00:03;24.33;;;23.17;;
11431;SDS011;5772;50.940;6.782;2023-07-31T08:02:28;20.97;;;20.03;;
11431;SDS011;5772;50.940;6.782;2023-07-31T08:04:54;24.87;;;23.63;;
11431;SDS011;5772;50.940;6.782;2023-07-31T08:07:19;22.27;;;21.27;;
11431;SDS011;5772;50.940;6.782;2023-07-31T08:09:45;20.70;;;19.70;;
11431;SDS011;5772;50.940;6.782;2023-07-31T08:12:10;23.03;;;21.93;;
11431;SDS011;5772;50.940;6.782;2023-07-31T08:14:37;23.83;;;22.63;;
11431;SDS011;5772;50.940;6.782;2023-07-31T08:17:04;22.37;;;21.30;;
11431;SDS011;5772;50.940;6.782;2023-07-31T08:19:29;23.13;;;22.07;;
11431;SDS011;5772;50.940;6.782;2023-07-31T08:21:55;22.80;;;21.67;;
11431;SDS011;5772;50.940;6.782;2023-07-31T08:24:20;21.40;;;20.30;;
11431;SDS011;5772;50.940;6.782;2023-07-31T08:26:46;21.87;;;20.87;;
11431;SDS011;5772;50.940;6.782;2023-07-31T08:29:11;23.40;;;22.30;;
11431;SDS011;5772;50.940;6.782;2023-07-31T08:31:38;23.37;;;22.27;;
11431;SDS011;5772;50.940;6.782;2023-07-31T08:34:04;22.33;;;21.23;;
11431;SDS011;5772;50.940;6.782;2023-07-31T08:36:29;22.03;;;20.83;;
11431;SDS011;5772;50.940;6.782;2023-07-31T08:38:54;21.13;;;19.93;;
11431;SDS011;5772;50.940;6.782;2023-07-31T08:41:20;21.57;;;20.37;;
11431;SDS011;5772;50.940;6.782;2023-07-31T08:43:45;20.80;;;19.90;;
11431;SDS011;5772;50.940;6.782;2023-07-31T08:46:11;25.53;;;24.13;;
11431;SDS011;5772;50.940;6.782;2023-07-31T08:48:38;24.17;;;23.07;;
11431;SDS011;5772;50.940;6.782;2023-07-31T08:51:04;23.27;;;22.27;;
11431;SDS011;5772;50.940;6.782;2023-07-31T08:53:29;22.67;;;21.67;;
11431;SDS011;5772;50.940;6.782;2023-07-31T08:55:55;21.30;;;20.33;;
11431;SDS011;5772;50.940;6.782;2023-07-31T08:58:21;23.40;;;22.17;;
11431;SDS011;5772;50.940;6.782;2023-07-31T09:00:48;22.97;;;21.77;;
11431;SDS011;5772;50.940;6.782;2023-07-31T09:03:15;24.17;;;22.57;;
11431;SDS011;5772;50.940;6.782;2023-07-31T09:05:44;22.83;;;21.73;;
11431;SDS011;5772;50.940;6.782;2023-07-31T09:08:10;22.40;;;21.40;;
11431;SDS011;5772;50.940;6.782;2023-07-31T09:10:39;25.00;;;23.83;;
11431;SDS011;5772;50.940;6.782;2023-07-31T09:13:05;24.00;;;22.90;;
11431;SDS011;5772;50.940;6.782;2023-07-31T09:15:31;21.10;;;20.10;;
11431;SDS011;5772;50.940;6.782;2023-07-31T09:17:58;21.47;;;20.57;;
11431;SDS011;5772;50.940;6.782;2023-07-31T09:20:24;22.17;;;21.10;;
11431;SDS011;5772;50.940;6.782;2023-07-31T09:22:51;26.40;;;25.10;;
11431;SDS011;5772;50.940;6.782;2023-07-31T09:25:17;23.60;;;22.30;;
11431;SDS011;5772;50.940;6.782;2023-07-31T09:27:47;24.27;;;23.03;;
11431;SDS011;5772;50.940;6.782;2023-07-31T09:30:14;25.50;;;24.30;;
11431;SDS011;5772;50.940;6.782;2023-07-31T09:32:39;22.40;;;21.27;;
11431;SDS011;5772;50.940;6.782;2023-07-31T09:35:12;22.80;;;21.70;;
11431;SDS011;5772;50.940;6.782;2023-07-31T09:37:39;22.90;;;21.87;;
11431;SDS011;5772;50.940;6.782;2023-07-31T09:40:06;26.47;;;25.30;;
11431;SDS011;5772;50.940;6.782;2023-07-31T09:42:32;22.57;;;21.57;;
11431;SDS011;5772;50.940;6.782;2023-07-31T09:45:06;19.33;;;18.53;;
11431;SDS011;5772;50.940;6.782;2023-07-31T09:47:32;20.23;;;19.33;;
11431;SDS011;5772;50.940;6.782;2023-07-31T09:49:57;19.57;;;18.67;;
11431;SDS011;5772;50.940;6.782;2023-07-31T09:52:24;19.13;;;18.23;;
11431;SDS011;5772;50.940;6.782;2023-07-31T09:54:50;19.43;;;18.53;;
11431;SDS011;5772;50.940;6.782;2023-07-31T09:57:17;19.53;;;18.47;;
11431;SDS011;5772;50.940;6.782;2023-07-31T09:59:43;19.67;;;18.67;;
11431;SDS011;5772;50.940;6.782;2023-07-31T10:02:11;19.20;;;18.40;;
11431;SDS011;5772;50.940;6.782;2023-07-31T10:04:40;19.50;;;18.50;;
11431;SDS011;5772;50.940;6.782;2023-07-31T10:07:07;20.38;;;19.48;;
11431;SDS011;5772;50.940;6.782;2023-07-31T10:09:33;20.07;;;19.00;;
11431;SDS011;5772;50.940;6.782;2023-07-31T10:11:59;19.60;;;18.53;;
11431;SDS011;5772;50.940;6.782;2023-07-31T10:14:26;20.37;;;19.37;;
11431;SDS011;5772;50.940;6.782;2023-07-31T10:16:52;19.33;;;18.43;;
11431;SDS011;5772;50.940;6.782;2023-07-31T10:19:18;20.57;;;19.50;;
11431;SDS011;5772;50.940;6.782;2023-07-31T10:21:43;19.80;;;18.80;;
11431;SDS011;5772;50.940;6.782;2023-07-31T10:24:10;19.83;;;18.87;;
11431;SDS011;5772;50.940;6.782;2023-07-31T10:26:36;18.70;;;17.80;;
11431;SDS011;5772;50.940;6.782;2023-07-31T10:29:02;19.73;;;18.93;;
11431;SDS011;5772;50.940;6.782;2023-07-31T10:31:29;19.53;;;18.70;;
11431;SDS011;5772;50.940;6.782;2023-07-31T10:33:55;17.75;;;16.98;;
11431;SDS011;5772;50.940;6.782;2023-07-31T10:36:22;19.33;;;18.53;;
11431;SDS011;5772;50.940;6.782;2023-07-31T10:38:48;18.35;;;17.55;;
11431;SDS011;5772;50.940;6.782;2023-07-31T10:41:14;18.42;;;17.38;;
11431;SDS011;5772;50.940;6.782;2023-07-31T10:43:39;18.47;;;17.70;;
11431;SDS011;5772;50.940;6.782;2023-07-31T10:46:08;18.80;;;17.90;;
11431;SDS011;5772;50.940;6.782;2023-07-31T10:48:35;17.60;;;16.70;;
11431;SDS011;5772;50.940;6.782;2023-07-31T10:51:06;19.47;;;18.57;;
11431;SDS011;5772;50.940;6.782;2023-07-31T10:53:32;22.57;;;21.67;;
11431;SDS011;5772;50.940;6.782;2023-07-31T10:55:58;21.07;;;20.07;;
11431;SDS011;5772;50.940;6.782;2023-07-31T10:58:23;21.93;;;21.03;;
11431;SDS011;5772;50.940;6.782;2023-07-31T11:00:49;21.83;;;20.97;;
11431;SDS011;5772;50.940;6.782;2023-07-31T11:03:15;21.37;;;20.37;;
11431;SDS011;5772;50.940;6.782;2023-07-31T11:05:46;20.37;;;19.33;;
11431;SDS011;5772;50.940;6.782;2023-07-31T11:08:13;21.37;;;20.47;;
11431;SDS011;5772;50.940;6.782;2023-07-31T11:10:39;21.90;;;20.97;;
11431;SDS011;5772;50.940;6.782;2023-07-31T11:13:05;22.60;;;21.70;;
11431;SDS011;5772;50.940;6.782;2023-07-31T11:15:30;22.17;;;21.27;;
11431;SDS011;5772;50.940;6.782;2023-07-31T11:17:55;19.83;;;19.03;;
11431;SDS011;5772;50.940;6.782;2023-07-31T11:20:21;19.00;;;18.10;;
11431;SDS011;5772;50.940;6.782;2023-07-31T11:22:48;20.70;;;19.80;;
11431;SDS011;5772;50.940;6.782;2023-07-31T11:25:14;21.23;;;20.33;;
11431;SDS011;5772;50.940;6.782;2023-07-31T11:27:39;19.37;;;18.57;;
11431;SDS011;5772;50.940;6.782;2023-07-31T11:30:06;17.13;;;16.42;;
11431;SDS011;5772;50.940;6.782;2023-07-31T11:32:32;17.52;;;16.83;;
11431;SDS011;5772;50.940;6.782;2023-07-31T11:34:58;16.48;;;15.57;;
11431;SDS011;5772;50.940;6.782;2023-07-31T11:37:23;16.73;;;16.02;;
11431;SDS011;5772;50.940;6.782;2023-07-31T11:39:59;14.88;;;14.27;;
11431;SDS011;5772;50.940;6.782;2023-07-31T11:42:25;15.35;;;14.68;;
11431;SDS011;5772;50.940;6.782;2023-07-31T11:44:50;17.30;;;16.60;;
11431;SDS011;5772;50.940;6.782;2023-07-31T11:47:15;20.38;;;19.55;;
11431;SDS011;5772;50.940;6.782;2023-07-31T11:49:41;21.67;;;20.88;;
11431;SDS011;5772;50.940;6.782;2023-07-31T11:52:07;22.98;;;22.08;;
11431;SDS011;5772;50.940;6.782;2023-07-31T11:54:32;22.20;;;21.33;;
11431;SDS011;5772;50.940;6.782;2023-07-31T11:56:59;24.45;;;23.45;;
11431;SDS011;5772;50.940;6.782;2023-07-31T11:59:24;24.80;;;23.80;;
11431;SDS011;5772;50.940;6.782;2023-07-31T12:01:50;22.40;;;21.50;;
11431;SDS011;5772;50.940;6.782;2023-07-31T12:04:15;20.48;;;19.67;;
11431;SDS011;5772;50.940;6.782;2023-07-31T12:06:41;20.08;;;19.27;;
11431;SDS011;5772;50.940;6.782;2023-07-31T12:09:06;19.85;;;19.05;;
11431;SDS011;5772;50.940;6.782;2023-07-31T12:11:41;18.73;;;17.85;;
11431;SDS011;5772;50.940;6.782;2023-07-31T12:14:09;21.20;;;20.20;;
11431;SDS011;5772;50.940;6.782;2023-07-31T12:16:44;20.48;;;19.67;;
11431;SDS011;5772;50.940;6.782;2023-07-31T12:19:10;18.17;;;17.30;;
11431;SDS011;5772;50.940;6.782;2023-07-31T12:21:35;16.50;;;15.70;;
11431;SDS011;5772;50.940;6.782;2023-07-31T12:24:01;17.00;;;16.20;;
11431;SDS011;5772;50.940;6.782;2023-07-31T12:26:33;16.33;;;15.65;;
11431;SDS011;5772;50.940;6.782;2023-07-31T12:28:58;17.20;;;16.50;;
11431;SDS011;5772;50.940;6.782;2023-07-31T12:31:27;15.43;;;14.80;;
11431;SDS011;5772;50.940;6.782;2023-07-31T12:33:53;16.13;;;15.45;;
11431;SDS011;5772;50.940;6.782;2023-07-31T12:36:20;16.70;;;15.90;;
11431;SDS011;5772;50.940;6.782;2023-07-31T12:38:46;16.20;;;15.50;;
11431;SDS011;5772;50.940;6.782;2023-07-31T12:41:12;16.58;;;15.77;;
11431;SDS011;5772;50.940;6.782;2023-07-31T12:43:38;15.88;;;14.98;;
11431;SDS011;5772;50.940;6.782;2023-07-31T12:46:05;14.80;;;14.20;;
11431;SDS011;5772;50.940;6.782;2023-07-31T12:48:33;15.93;;;15.13;;
11431;SDS011;5772;50.940;6.782;2023-07-31T12:50:59;15.38;;;14.68;;
11431;SDS011;5772;50.940;6.782;2023-07-31T12:53:25;15.98;;;15.27;;
11431;SDS011;5772;50.940;6.782;2023-07-31T12:55:50;16.30;;;15.60;;
11431;SDS011;5772;50.940;6.782;2023-07-31T12:58:15;16.83;;;15.95;;
11431;SDS011;5772;50.940;6.782;2023-07-31T13:00:41;18.33;;;17.52;;
11431;SDS011;5772;50.940;6.782;2023-07-31T13:03:06;18.02;;;17.02;;
11431;SDS011;5772;50.940;6.782;2023-07-31T13:05:33;19.05;;;18.25;;
11431;SDS011;5772;50.940;6.782;2023-07-31T13:07:58;19.20;;;18.40;;
11431;SDS011;5772;50.940;6.782;2023-07-31T13:10:24;16.48;;;15.77;;
11431;SDS011;5772;50.940;6.782;2023-07-31T13:12:49;16.98;;;15.98;;
11431;SDS011;5772;50.940;6.782;2023-07-31T13:15:15;16.48;;;15.77;;
11431;SDS011;5772;50.940;6.782;2023-07-31T13:17:40;17.30;;;16.52;;
11431;SDS011;5772;50.940;6.782;2023-07-31T13:20:06;18.33;;;17.52;;
11431;SDS011;5772;50.940;6.782;2023-07-31T13:22:34;18.55;;;17.85;;
11431;SDS011;5772;50.940;6.782;2023-07-31T13:24:59;19.80;;;19.00;;
11431;SDS011;5772;50.940;6.782;2023-07-31T13:27:24;18.08;;;17.35;;
11431;SDS011;5772;50.940;6.782;2023-07-31T13:29:50;19.42;;;18.42;;
11431;SDS011;5772;50.940;6.782;2023-07-31T13:32:16;19.25;;;17.70;;
11431;SDS011;5772;50.940;6.782;2023-07-31T13:34:41;20.17;;;19.27;;
11431;SDS011;5772;50.940;6.782;2023-07-31T13:37:07;18.20;;;17.40;;
11431;SDS011;5772;50.940;6.782;2023-07-31T13:39:34;20.20;;;19.38;;
11431;SDS011;5772;50.940;6.782;2023-07-31T13:41:59;20.80;;;20.00;;
11431;SDS011;5772;50.940;6.782;2023-07-31T13:44:24;22.50;;;21.60;;
11431;SDS011;5772;50.940;6.782;2023-07-31T13:46:50;24.20;;;23.20;;
11431;SDS011;5772;50.940;6.782;2023-07-31T13:49:16;22.02;;;21.13;;
11431;SDS011;5772;50.940;6.782;2023-07-31T13:51:41;16.55;;;15.77;;
11431;SDS011;5772;50.940;6.782;2023-07-31T13:54:06;15.52;;;14.85;;
11431;SDS011;5772;50.940;6.782;2023-07-31T13:56:33;15.02;;;14.35;;
11431;SDS011;5772;50.940;6.782;2023-07-31T13:58:59;19.80;;;19.00;;
11431;SDS011;5772;50.940;6.782;2023-07-31T14:01:24;22.35;;;21.35;;
11431;SDS011;5772;50.940;6.782;2023-07-31T14:03:49;20.58;;;19.77;;
11431;SDS011;5772;50.940;6.782;2023-07-31T14:06:15;22.27;;;21.38;;
11431;SDS011;5772;50.940;6.782;2023-07-31T14:08:40;22.05;;;20.95;;
11431;SDS011;5772;50.940;6.782;2023-07-31T14:11:05;17.20;;;16.45;;
11431;SDS011;5772;50.940;6.782;2023-07-31T14:13:32;16.23;;;15.43;;
11431;SDS011;5772;50.940;6.782;2023-07-31T14:15:58;15.30;;;14.60;;
11431;SDS011;5772;50.940;6.782;2023-07-31T14:18:23;16.67;;;15.98;;
11431;SDS011;5772;50.940;6.782;2023-07-31T14:20:48;19.38;;;18.58;;
11431;SDS011;5772;50.940;6.782;2023-07-31T14:23:14;23.40;;;22.40;;
11431;SDS011;5772;50.940;6.782;2023-07-31T14:25:39;21.00;;;20.00;;